createdAt,value
2018-08-27T00:00:00.447Z,994.73
2018-08-27T00:01:06.367Z,994.78
2018-08-27T00:02:12.756Z,994.78
2018-08-27T00:03:19.163Z,994.79
2018-08-27T00:04:25.561Z,994.76
2018-08-27T00:05:31.975Z,994.77
2018-08-27T00:06:38.374Z,994.76
2018-08-27T00:07:44.776Z,994.74
2018-08-27T00:08:51.164Z,994.74
2018-08-27T00:09:57.576Z,994.70
2018-08-27T00:11:03.989Z,994.72
2018-08-27T00:12:10.387Z,994.71
2018-08-27T00:13:16.781Z,994.69
2018-08-27T00:14:23.166Z,994.67
2018-08-27T00:15:29.575Z,994.66
2018-08-27T00:16:35.980Z,994.64
2018-08-27T00:17:42.373Z,994.62
2018-08-27T00:18:48.791Z,994.62
2018-08-27T00:19:55.682Z,994.60
2018-08-27T00:21:01.594Z,994.62
2018-08-27T00:22:07.984Z,994.61
2018-08-27T00:23:14.385Z,994.60
2018-08-27T00:24:20.779Z,994.59
2018-08-27T00:25:27.213Z,994.60
2018-08-27T00:26:33.588Z,994.59
2018-08-27T00:27:39.987Z,994.60
2018-08-27T00:28:46.388Z,994.57
2018-08-27T00:29:52.790Z,994.53
2018-08-27T00:30:59.202Z,994.52
2018-08-27T00:32:05.582Z,994.52
2018-08-27T00:33:11.996Z,994.49
2018-08-27T00:34:18.390Z,994.51
2018-08-27T00:35:24.795Z,994.48
2018-08-27T00:36:31.193Z,994.48
2018-08-27T00:37:37.601Z,994.45
2018-08-27T00:38:44.002Z,994.46
2018-08-27T00:39:50.404Z,994.43
2018-08-27T00:40:56.816Z,994.42
2018-08-27T00:42:03.208Z,994.41
2018-08-27T00:43:09.621Z,994.42
2018-08-27T00:44:16.024Z,994.41
2018-08-27T00:45:22.428Z,994.43
2018-08-27T00:46:28.845Z,994.45
2018-08-27T00:47:35.240Z,994.44
2018-08-27T00:48:41.660Z,994.41
2018-08-27T00:49:48.063Z,994.41
2018-08-27T00:50:54.477Z,994.41
2018-08-27T00:52:00.886Z,994.41
2018-08-27T00:53:07.307Z,994.41
2018-08-27T00:54:13.700Z,994.37
2018-08-27T00:55:20.122Z,994.34
2018-08-27T00:56:26.524Z,994.37
2018-08-27T00:57:32.927Z,994.32
2018-08-27T00:58:39.337Z,994.39
2018-08-27T00:59:45.752Z,994.35
2018-08-27T01:00:52.664Z,994.37
2018-08-27T01:01:58.585Z,994.35
2018-08-27T01:03:04.987Z,994.35
2018-08-27T01:04:11.397Z,994.33
2018-08-27T01:05:17.811Z,994.23
2018-08-27T01:06:24.229Z,994.20
2018-08-27T01:07:30.627Z,994.15
2018-08-27T01:08:37.049Z,994.13
2018-08-27T01:09:43.469Z,994.22
2018-08-27T01:10:49.870Z,994.26
2018-08-27T01:11:56.301Z,994.22
2018-08-27T01:13:02.696Z,994.23
2018-08-27T01:14:10.122Z,994.20
2018-08-27T01:15:15.534Z,994.08
2018-08-27T01:16:21.953Z,994.07
2018-08-27T01:17:28.365Z,994.02
2018-08-27T01:18:34.772Z,994.01
2018-08-27T01:19:41.186Z,994.01
2018-08-27T01:20:47.599Z,994.12
2018-08-27T01:21:54.038Z,994.12
2018-08-27T01:23:00.450Z,994.17
2018-08-27T01:24:06.868Z,994.16
2018-08-27T01:25:13.290Z,994.17
2018-08-27T01:26:19.711Z,994.17
2018-08-27T01:27:26.124Z,994.16
2018-08-27T01:28:32.539Z,994.15
2018-08-27T01:29:38.957Z,994.13
2018-08-27T01:30:45.371Z,994.17
2018-08-27T01:31:51.796Z,994.18
2018-08-27T01:32:58.212Z,994.20
2018-08-27T01:34:04.624Z,994.18
2018-08-27T01:35:11.041Z,994.18
2018-08-27T01:36:17.460Z,994.14
2018-08-27T01:37:23.859Z,994.18
2018-08-27T01:38:30.277Z,994.16
2018-08-27T01:39:36.693Z,994.18
2018-08-27T01:40:43.114Z,994.12
2018-08-27T01:41:49.527Z,994.11
2018-08-27T01:42:55.929Z,994.10
2018-08-27T01:44:02.351Z,994.07
2018-08-27T01:45:08.748Z,994.03
2018-08-27T01:46:15.173Z,994.04
2018-08-27T01:47:21.591Z,994.02
2018-08-27T01:48:28.003Z,994.07
2018-08-27T01:49:34.417Z,994.07
2018-08-27T01:50:40.856Z,994.07
2018-08-27T01:51:47.249Z,994.10
2018-08-27T01:52:53.667Z,994.07
2018-08-27T01:54:00.062Z,994.12
2018-08-27T01:55:06.479Z,994.14
2018-08-27T01:56:13.890Z,994.09
2018-08-27T01:57:19.326Z,994.10
2018-08-27T01:58:25.752Z,994.10
2018-08-27T01:59:32.141Z,994.08
2018-08-27T02:00:38.548Z,994.07
2018-08-27T02:01:44.978Z,994.05
2018-08-27T02:02:51.378Z,994.10
2018-08-27T02:03:57.799Z,994.06
2018-08-27T02:05:04.223Z,994.07
2018-08-27T02:06:10.629Z,994.04
2018-08-27T02:07:17.050Z,994.05
2018-08-27T02:08:23.456Z,994.04
2018-08-27T02:09:29.864Z,994.07
2018-08-27T02:10:36.279Z,994.08
2018-08-27T02:11:43.702Z,994.09
2018-08-27T02:12:49.117Z,994.10
2018-08-27T02:13:55.530Z,994.09
2018-08-27T02:15:01.947Z,994.06
2018-08-27T02:16:08.355Z,994.08
2018-08-27T02:17:14.770Z,994.07
2018-08-27T02:18:21.197Z,994.11
2018-08-27T02:19:27.586Z,994.10
2018-08-27T02:20:34.006Z,994.12
2018-08-27T02:21:40.421Z,994.12
2018-08-27T02:22:46.838Z,994.16
2018-08-27T02:23:53.247Z,994.06
2018-08-27T02:24:59.659Z,993.99
2018-08-27T02:26:06.064Z,993.97
2018-08-27T02:27:12.483Z,994.01
2018-08-27T02:28:18.891Z,994.08
2018-08-27T02:29:25.298Z,994.12
2018-08-27T02:30:31.729Z,994.14
2018-08-27T02:31:38.137Z,994.18
2018-08-27T02:32:44.549Z,994.15
2018-08-27T02:33:50.969Z,994.12
2018-08-27T02:34:57.501Z,994.12
2018-08-27T02:36:03.783Z,994.15
2018-08-27T02:37:10.208Z,994.18
2018-08-27T02:38:16.614Z,994.17
2018-08-27T02:39:23.028Z,994.16
2018-08-27T02:40:29.430Z,994.13
2018-08-27T02:41:35.846Z,994.10
2018-08-27T02:42:42.261Z,994.10
2018-08-27T02:43:48.664Z,994.05
2018-08-27T02:44:55.063Z,994.04
2018-08-27T02:46:01.469Z,994.07
2018-08-27T02:47:07.880Z,994.07
2018-08-27T02:48:14.292Z,994.12
2018-08-27T02:49:20.691Z,994.11
2018-08-27T02:50:27.589Z,994.10
2018-08-27T02:51:33.506Z,994.12
2018-08-27T02:52:39.924Z,994.11
2018-08-27T02:53:46.319Z,994.13
2018-08-27T02:54:52.728Z,994.13
2018-08-27T02:55:59.144Z,994.09
2018-08-27T02:57:05.565Z,994.02
2018-08-27T02:58:11.959Z,994.02
2018-08-27T02:59:18.378Z,994.01
2018-08-27T03:00:24.778Z,994.02
2018-08-27T03:01:31.198Z,993.97
2018-08-27T03:02:37.617Z,993.96
2018-08-27T03:03:44.018Z,993.96
2018-08-27T03:04:50.433Z,993.93
2018-08-27T03:05:56.846Z,993.95
2018-08-27T03:07:03.249Z,993.91
2018-08-27T03:08:09.674Z,993.87
2018-08-27T03:09:16.072Z,993.83
2018-08-27T03:10:22.488Z,993.74
2018-08-27T03:11:28.918Z,993.76
2018-08-27T03:12:35.311Z,993.71
2018-08-27T03:13:41.731Z,993.71
2018-08-27T03:14:48.327Z,993.75
2018-08-27T03:15:54.547Z,993.82
2018-08-27T03:17:00.964Z,993.78
2018-08-27T03:18:07.379Z,993.73
2018-08-27T03:19:13.791Z,993.74
2018-08-27T03:20:20.205Z,993.66
2018-08-27T03:21:27.099Z,993.69
2018-08-27T03:22:33.035Z,993.69
2018-08-27T03:23:39.442Z,993.69
2018-08-27T03:24:45.858Z,993.71
2018-08-27T03:25:52.277Z,993.70
2018-08-27T03:26:58.680Z,993.74
2018-08-27T03:28:05.333Z,993.75
2018-08-27T03:29:11.515Z,993.76
2018-08-27T03:30:17.941Z,993.76
2018-08-27T03:31:24.359Z,993.77
2018-08-27T03:32:30.823Z,993.80
2018-08-27T03:33:37.181Z,993.85
2018-08-27T03:34:44.598Z,993.79
2018-08-27T03:35:50.032Z,993.85
2018-08-27T03:36:56.440Z,993.80
2018-08-27T03:38:02.854Z,993.74
2018-08-27T03:39:09.257Z,993.72
2018-08-27T03:40:15.676Z,993.79
2018-08-27T03:41:22.081Z,993.79
2018-08-27T03:42:28.502Z,993.88
2018-08-27T03:43:35.404Z,993.94
2018-08-27T03:44:41.330Z,993.97
2018-08-27T03:45:47.741Z,994.00
2018-08-27T03:46:54.144Z,993.93
2018-08-27T03:48:00.559Z,993.89
2018-08-27T03:49:06.958Z,993.92
2018-08-27T03:50:13.369Z,993.91
2018-08-27T03:51:19.771Z,993.92
2018-08-27T03:52:26.280Z,993.93
2018-08-27T03:53:32.589Z,993.92
2018-08-27T03:54:38.988Z,993.93
2018-08-27T03:55:45.390Z,993.93
2018-08-27T03:56:51.782Z,993.91
2018-08-27T03:57:58.292Z,993.88
2018-08-27T03:59:04.577Z,993.92
2018-08-27T04:00:11.472Z,993.95
2018-08-27T04:01:17.368Z,993.90
2018-08-27T04:02:23.767Z,993.85
2018-08-27T04:03:30.623Z,993.87
2018-08-27T04:04:36.511Z,993.93
2018-08-27T04:05:42.899Z,993.97
2018-08-27T04:06:49.280Z,993.95
2018-08-27T04:07:55.673Z,993.97
2018-08-27T04:09:02.044Z,993.98
2018-08-27T04:10:08.923Z,993.97
2018-08-27T04:11:15.291Z,993.91
2018-08-27T04:12:21.187Z,993.85
2018-08-27T04:13:27.572Z,993.81
2018-08-27T04:14:34.397Z,993.82
2018-08-27T04:15:40.824Z,993.79
2018-08-27T04:16:47.194Z,993.74
2018-08-27T04:17:53.090Z,993.68
2018-08-27T04:18:59.456Z,993.70
2018-08-27T04:20:06.332Z,993.73
2018-08-27T04:21:12.206Z,993.74
2018-08-27T04:22:18.584Z,993.77
2018-08-27T04:23:24.977Z,993.77
2018-08-27T04:24:31.352Z,993.72
2018-08-27T04:25:37.751Z,993.76
2018-08-27T04:26:44.608Z,993.74
2018-08-27T04:27:50.498Z,993.84
2018-08-27T04:28:57.390Z,993.86
2018-08-27T04:30:03.265Z,993.87
2018-08-27T04:31:09.649Z,993.85
2018-08-27T04:32:16.045Z,993.82
2018-08-27T04:33:22.926Z,993.78
2018-08-27T04:34:28.800Z,993.75
2018-08-27T04:35:35.676Z,993.72
2018-08-27T04:36:41.575Z,993.81
2018-08-27T04:37:48.612Z,993.80
2018-08-27T04:38:54.348Z,993.80
2018-08-27T04:40:00.727Z,993.78
2018-08-27T04:41:07.599Z,993.85
2018-08-27T04:42:13.496Z,993.77
2018-08-27T04:43:19.886Z,993.76
2018-08-27T04:44:26.255Z,993.73
2018-08-27T04:45:32.654Z,993.79
2018-08-27T04:46:39.516Z,993.80
2018-08-27T04:47:45.390Z,993.77
2018-08-27T04:48:51.783Z,993.76
2018-08-27T04:49:58.653Z,993.80
2018-08-27T04:51:04.552Z,993.86
2018-08-27T04:52:10.934Z,993.81
2018-08-27T04:53:17.309Z,993.81
2018-08-27T04:54:24.681Z,993.86
2018-08-27T04:55:30.066Z,993.86
2018-08-27T04:56:36.441Z,993.90
2018-08-27T04:57:42.835Z,993.89
2018-08-27T04:58:49.218Z,993.90
2018-08-27T04:59:55.599Z,993.88
2018-08-27T05:01:02.489Z,993.88
2018-08-27T05:02:08.364Z,993.90
2018-08-27T05:03:14.774Z,993.94
2018-08-27T05:04:21.651Z,994.00
2018-08-27T05:05:27.545Z,993.98
2018-08-27T05:06:33.931Z,993.96
2018-08-27T05:07:40.384Z,994.02
2018-08-27T05:08:46.723Z,994.05
2018-08-27T05:09:53.101Z,994.04
2018-08-27T05:10:59.506Z,994.05
2018-08-27T05:12:05.888Z,994.07
2018-08-27T05:13:12.340Z,994.03
2018-08-27T05:14:18.681Z,994.06
2018-08-27T05:15:25.060Z,994.03
2018-08-27T05:16:31.448Z,994.04
2018-08-27T05:17:37.830Z,994.09
2018-08-27T05:18:44.233Z,994.09
2018-08-27T05:19:51.107Z,994.09
2018-08-27T05:20:56.991Z,994.07
2018-08-27T05:22:03.388Z,994.03
2018-08-27T05:23:09.762Z,993.99
2018-08-27T05:24:16.155Z,993.95
2018-08-27T05:25:22.529Z,993.87
2018-08-27T05:26:28.915Z,993.88
2018-08-27T05:27:35.303Z,993.86
2018-08-27T05:28:41.684Z,993.82
2018-08-27T05:29:48.078Z,993.84
2018-08-27T05:30:54.472Z,993.85
2018-08-27T05:32:00.845Z,993.87
2018-08-27T05:33:07.719Z,993.88
2018-08-27T05:34:13.625Z,993.94
2018-08-27T05:35:20.014Z,994.01
2018-08-27T05:36:26.886Z,994.03
2018-08-27T05:37:32.794Z,994.07
2018-08-27T05:38:39.253Z,994.05
2018-08-27T05:39:45.572Z,994.08
2018-08-27T05:40:52.975Z,994.08
2018-08-27T05:41:58.855Z,994.05
2018-08-27T05:43:04.767Z,994.08
2018-08-27T05:44:11.670Z,994.02
2018-08-27T05:45:17.567Z,994.06
2018-08-27T05:46:23.968Z,994.02
2018-08-27T05:47:30.356Z,994.06
2018-08-27T05:48:37.263Z,994.05
2018-08-27T05:49:43.181Z,994.04
2018-08-27T05:50:50.073Z,994.07
2018-08-27T05:51:55.981Z,994.05
2018-08-27T05:53:02.400Z,994.01
2018-08-27T05:54:08.795Z,994.01
2018-08-27T05:55:15.694Z,994.02
2018-08-27T05:56:21.604Z,994.06
2018-08-27T05:57:28.004Z,994.01
2018-08-27T05:58:34.407Z,993.98
2018-08-27T05:59:40.817Z,994.00
2018-08-27T06:00:47.710Z,993.99
2018-08-27T06:01:53.715Z,993.99
2018-08-27T06:03:00.531Z,993.95
2018-08-27T06:04:06.454Z,993.93
2018-08-27T06:05:12.871Z,993.93
2018-08-27T06:06:19.778Z,993.97
2018-08-27T06:07:25.676Z,993.93
2018-08-27T06:08:33.094Z,993.98
2018-08-27T06:09:39.009Z,993.98
2018-08-27T06:10:44.927Z,993.88
2018-08-27T06:11:51.346Z,993.89
2018-08-27T06:12:58.268Z,993.89
2018-08-27T06:14:04.280Z,993.84
2018-08-27T06:15:10.593Z,993.85
2018-08-27T06:16:17.138Z,993.86
2018-08-27T06:17:23.430Z,993.80
2018-08-27T06:18:30.346Z,993.83
2018-08-27T06:19:37.274Z,993.87
2018-08-27T06:20:42.699Z,993.85
2018-08-27T06:21:49.672Z,993.90
2018-08-27T06:22:56.038Z,993.84
2018-08-27T06:24:01.942Z,993.85
2018-08-27T06:25:08.440Z,993.79
2018-08-27T06:26:14.790Z,993.82
2018-08-27T06:27:21.213Z,993.80
2018-08-27T06:28:27.635Z,993.85
2018-08-27T06:29:34.069Z,993.83
2018-08-27T06:30:40.481Z,993.83
2018-08-27T06:31:46.916Z,993.76
2018-08-27T06:32:53.336Z,993.76
2018-08-27T06:33:59.772Z,993.77
2018-08-27T06:35:06.724Z,993.79
2018-08-27T06:36:13.118Z,993.81
2018-08-27T06:37:19.050Z,993.82
2018-08-27T06:38:25.479Z,993.81
2018-08-27T06:39:31.908Z,993.83
2018-08-27T06:40:38.341Z,993.86
2018-08-27T06:41:44.764Z,993.85
2018-08-27T06:42:51.203Z,993.83
2018-08-27T06:43:57.637Z,993.84
2018-08-27T06:45:04.079Z,993.77
2018-08-27T06:46:10.543Z,993.81
2018-08-27T06:47:16.951Z,993.78
2018-08-27T06:48:23.388Z,993.81
2018-08-27T06:49:29.830Z,993.82
2018-08-27T06:50:36.750Z,993.85
2018-08-27T06:51:42.687Z,993.88
2018-08-27T06:52:49.609Z,993.88
2018-08-27T06:53:55.542Z,993.89
2018-08-27T06:55:02.472Z,993.90
2018-08-27T06:56:08.900Z,993.90
2018-08-27T06:57:14.825Z,993.86
2018-08-27T06:58:21.247Z,993.92
2018-08-27T06:59:27.691Z,993.88
2018-08-27T07:00:34.092Z,993.86
2018-08-27T07:01:40.510Z,993.80
2018-08-27T07:02:46.928Z,993.75
2018-08-27T07:03:53.350Z,993.81
2018-08-27T07:04:59.884Z,993.82
2018-08-27T07:06:06.187Z,993.76
2018-08-27T07:07:12.601Z,993.79
2018-08-27T07:08:19.014Z,993.80
2018-08-27T07:09:25.913Z,993.79
2018-08-27T07:10:31.873Z,993.83
2018-08-27T07:11:38.316Z,993.77
2018-08-27T07:12:44.665Z,993.81
2018-08-27T07:13:51.084Z,993.89
2018-08-27T07:14:57.500Z,993.86
2018-08-27T07:16:04.403Z,994.06
2018-08-27T07:17:10.326Z,993.97
2018-08-27T07:18:16.761Z,993.94
2018-08-27T07:19:23.654Z,994.01
2018-08-27T07:20:29.591Z,994.00
2018-08-27T07:21:36.012Z,993.99
2018-08-27T07:22:42.431Z,994.00
2018-08-27T07:23:48.856Z,994.02
2018-08-27T07:24:55.480Z,993.94
2018-08-27T07:26:02.270Z,993.92
2018-08-27T07:27:08.155Z,993.94
2018-08-27T07:28:15.051Z,993.90
2018-08-27T07:29:21.252Z,993.91
2018-08-27T07:30:27.490Z,993.94
2018-08-27T07:31:33.941Z,993.90
2018-08-27T07:32:40.374Z,993.97
2018-08-27T07:33:46.876Z,993.90
2018-08-27T07:34:53.263Z,993.95
2018-08-27T07:35:59.733Z,993.96
2018-08-27T07:37:06.160Z,993.90
2018-08-27T07:38:12.594Z,994.00
2018-08-27T07:39:19.042Z,993.94
2018-08-27T07:40:25.503Z,993.91
2018-08-27T07:41:31.937Z,994.08
2018-08-27T07:42:38.381Z,993.98
2018-08-27T07:43:44.838Z,993.99
2018-08-27T07:44:52.343Z,993.95
2018-08-27T07:45:57.716Z,994.06
2018-08-27T07:47:04.155Z,994.00
2018-08-27T07:48:10.629Z,994.13
2018-08-27T07:49:17.041Z,994.16
2018-08-27T07:50:23.492Z,994.15
2018-08-27T07:51:30.113Z,994.15
2018-08-27T07:52:36.355Z,994.14
2018-08-27T07:53:42.796Z,994.20
2018-08-27T07:54:49.897Z,994.20
2018-08-27T07:55:55.668Z,994.25
2018-08-27T07:57:02.089Z,994.20
2018-08-27T07:58:08.529Z,994.23
2018-08-27T07:59:14.970Z,994.20
2018-08-27T08:00:21.376Z,994.24
2018-08-27T08:01:27.797Z,994.31
2018-08-27T08:02:34.222Z,994.34
2018-08-27T08:03:40.634Z,994.31
2018-08-27T08:04:47.121Z,994.27
2018-08-27T08:05:53.508Z,994.30
2018-08-27T08:06:59.938Z,994.30
2018-08-27T08:08:06.859Z,994.32
2018-08-27T08:09:12.808Z,994.32
2018-08-27T08:10:19.256Z,994.30
2018-08-27T08:11:25.697Z,994.35
2018-08-27T08:12:32.132Z,994.38
2018-08-27T08:13:38.569Z,994.41
2018-08-27T08:14:45.000Z,994.42
2018-08-27T08:15:51.450Z,994.39
2018-08-27T08:16:57.878Z,994.30
2018-08-27T08:18:04.321Z,994.28
2018-08-27T08:19:11.335Z,994.33
2018-08-27T08:20:17.202Z,994.30
2018-08-27T08:21:23.645Z,994.27
2018-08-27T08:22:30.081Z,994.27
2018-08-27T08:23:36.525Z,994.27
2018-08-27T08:24:42.972Z,994.25
2018-08-27T08:25:49.418Z,994.26
2018-08-27T08:26:56.329Z,994.23
2018-08-27T08:28:02.324Z,994.30
2018-08-27T08:29:08.773Z,994.23
2018-08-27T08:30:15.233Z,994.24
2018-08-27T08:31:21.711Z,994.23
2018-08-27T08:32:28.174Z,994.34
2018-08-27T08:33:35.117Z,994.34
2018-08-27T08:34:42.571Z,994.40
2018-08-27T08:35:47.552Z,994.42
2018-08-27T08:36:54.019Z,994.49
2018-08-27T08:38:00.480Z,994.43
2018-08-27T08:39:06.947Z,994.45
2018-08-27T08:40:13.412Z,994.48
2018-08-27T08:41:19.873Z,994.46
2018-08-27T08:42:26.361Z,994.47
2018-08-27T08:43:32.826Z,994.48
2018-08-27T08:44:39.304Z,994.50
2018-08-27T08:45:45.856Z,994.46
2018-08-27T08:46:52.596Z,994.45
2018-08-27T08:47:58.780Z,994.52
2018-08-27T08:49:05.771Z,994.48
2018-08-27T08:50:11.763Z,994.53
2018-08-27T08:51:18.245Z,994.50
2018-08-27T08:52:25.279Z,994.46
2018-08-27T08:53:31.320Z,994.48
2018-08-27T08:54:37.720Z,994.49
2018-08-27T08:55:44.256Z,994.56
2018-08-27T08:56:50.718Z,994.58
2018-08-27T08:57:57.213Z,994.55
2018-08-27T08:59:03.695Z,994.57
2018-08-27T09:00:10.194Z,994.63
2018-08-27T09:01:16.755Z,994.65
2018-08-27T09:02:23.286Z,994.63
2018-08-27T09:03:29.723Z,994.66
2018-08-27T09:04:36.176Z,994.64
2018-08-27T09:05:43.670Z,994.69
2018-08-27T09:06:49.663Z,994.70
2018-08-27T09:07:55.731Z,994.70
2018-08-27T09:09:02.206Z,994.73
2018-08-27T09:10:08.648Z,994.73
2018-08-27T09:11:15.126Z,994.78
2018-08-27T09:12:21.608Z,994.78
2018-08-27T09:13:28.086Z,994.74
2018-08-27T09:14:34.565Z,994.79
2018-08-27T09:15:41.047Z,994.73
2018-08-27T09:16:47.561Z,994.73
2018-08-27T09:17:54.032Z,994.67
2018-08-27T09:19:00.526Z,994.79
2018-08-27T09:20:07.534Z,994.81
2018-08-27T09:21:13.548Z,994.74
2018-08-27T09:22:20.089Z,994.72
2018-08-27T09:23:26.613Z,994.67
2018-08-27T09:24:33.159Z,994.75
2018-08-27T09:25:39.696Z,994.71
2018-08-27T09:26:46.228Z,994.80
2018-08-27T09:27:52.784Z,994.75
2018-08-27T09:28:59.317Z,994.73
2018-08-27T09:30:05.862Z,994.79
2018-08-27T09:31:12.430Z,994.78
2018-08-27T09:32:18.947Z,994.78
2018-08-27T09:33:25.491Z,994.68
2018-08-27T09:34:32.044Z,994.73
2018-08-27T09:35:38.590Z,994.69
2018-08-27T09:36:45.161Z,994.69
2018-08-27T09:37:51.684Z,994.67
2018-08-27T09:38:58.394Z,994.65
2018-08-27T09:40:04.760Z,994.69
2018-08-27T09:41:11.312Z,994.70
2018-08-27T09:42:17.885Z,994.63
2018-08-27T09:43:24.429Z,994.61
2018-08-27T09:44:30.988Z,994.60
2018-08-27T09:45:37.553Z,994.64
2018-08-27T09:46:44.136Z,994.57
2018-08-27T09:47:50.690Z,994.54
2018-08-27T09:48:57.240Z,994.52
2018-08-27T09:50:03.819Z,994.54
2018-08-27T09:51:10.396Z,994.54
2018-08-27T09:52:16.984Z,994.50
2018-08-27T09:53:23.568Z,994.50
2018-08-27T09:54:30.146Z,994.49
2018-08-27T09:55:36.744Z,994.49
2018-08-27T09:56:43.333Z,994.49
2018-08-27T09:57:49.920Z,994.52
2018-08-27T09:58:56.536Z,994.47
2018-08-27T10:00:03.288Z,994.49
2018-08-27T10:01:09.669Z,994.45
2018-08-27T10:02:16.268Z,994.55
2018-08-27T10:03:22.865Z,994.60
2018-08-27T10:04:29.453Z,994.53
2018-08-27T10:05:36.061Z,994.52
2018-08-27T10:06:42.677Z,994.59
2018-08-27T10:07:49.322Z,994.50
2018-08-27T10:08:56.010Z,994.56
2018-08-27T10:10:02.584Z,994.56
2018-08-27T10:11:09.229Z,994.59
2018-08-27T10:12:15.889Z,994.58
2018-08-27T10:13:22.554Z,994.61
2018-08-27T10:14:29.312Z,994.67
2018-08-27T10:15:35.874Z,994.71
2018-08-27T10:16:42.555Z,994.58
2018-08-27T10:17:49.244Z,994.58
2018-08-27T10:18:55.922Z,994.59
2018-08-27T10:20:02.628Z,994.61
2018-08-27T10:21:09.652Z,994.62
2018-08-27T10:22:16.131Z,994.67
2018-08-27T10:23:22.775Z,994.59
2018-08-27T10:24:29.496Z,994.58
2018-08-27T10:25:36.438Z,994.67
2018-08-27T10:26:42.972Z,994.61
2018-08-27T10:27:50.224Z,994.64
2018-08-27T10:28:56.491Z,994.77
2018-08-27T10:30:03.242Z,994.71
2018-08-27T10:31:10.006Z,994.71
2018-08-27T10:32:16.759Z,994.82
2018-08-27T10:33:23.520Z,994.80
2018-08-27T10:34:30.269Z,994.74
2018-08-27T10:35:37.006Z,994.69
2018-08-27T10:36:43.768Z,994.73
2018-08-27T10:37:50.552Z,994.79
2018-08-27T10:38:57.261Z,994.79
2018-08-27T10:40:04.026Z,994.77
2018-08-27T10:41:10.790Z,994.76
2018-08-27T10:42:17.554Z,994.74
2018-08-27T10:43:25.328Z,994.75
2018-08-27T10:44:32.086Z,994.65
2018-08-27T10:45:37.872Z,994.60
2018-08-27T10:46:45.132Z,994.67
2018-08-27T10:47:51.406Z,994.64
2018-08-27T10:48:58.193Z,994.65
2018-08-27T10:50:05.009Z,994.63
2018-08-27T10:51:11.763Z,994.66
2018-08-27T10:52:18.579Z,994.66
2018-08-27T10:53:25.370Z,994.66
2018-08-27T10:54:32.168Z,994.63
2018-08-27T10:55:38.966Z,994.73
2018-08-27T10:56:45.748Z,994.75
2018-08-27T10:57:52.550Z,994.73
2018-08-27T10:58:59.334Z,994.73
2018-08-27T11:00:06.112Z,994.77
2018-08-27T11:01:13.878Z,994.74
2018-08-27T11:02:19.646Z,994.72
2018-08-27T11:03:26.430Z,994.72
2018-08-27T11:04:33.317Z,994.75
2018-08-27T11:05:39.978Z,994.73
2018-08-27T11:06:46.763Z,994.65
2018-08-27T11:07:53.664Z,994.80
2018-08-27T11:09:00.366Z,994.75
2018-08-27T11:10:07.171Z,994.72
2018-08-27T11:11:14.301Z,994.77
2018-08-27T11:12:20.811Z,994.79
2018-08-27T11:13:27.632Z,994.81
2018-08-27T11:14:34.453Z,994.77
2018-08-27T11:15:41.262Z,994.78
2018-08-27T11:16:48.089Z,994.81
2018-08-27T11:17:54.894Z,994.87
2018-08-27T11:19:01.730Z,994.83
2018-08-27T11:20:08.641Z,994.89
2018-08-27T11:21:15.356Z,994.87
2018-08-27T11:22:22.280Z,994.93
2018-08-27T11:23:29.001Z,994.88
2018-08-27T11:24:35.798Z,994.93
2018-08-27T11:25:42.624Z,995.02
2018-08-27T11:26:49.464Z,994.99
2018-08-27T11:27:56.222Z,995.03
2018-08-27T11:29:03.046Z,994.99
2018-08-27T11:30:09.843Z,994.95
2018-08-27T11:31:16.659Z,994.97
2018-08-27T11:32:23.462Z,994.98
2018-08-27T11:33:30.280Z,994.98
2018-08-27T11:34:37.056Z,994.96
2018-08-27T11:35:43.834Z,995.00
2018-08-27T11:36:50.606Z,995.00
2018-08-27T11:37:57.373Z,995.00
2018-08-27T11:39:04.129Z,995.02
2018-08-27T11:40:10.879Z,995.04
2018-08-27T11:41:17.595Z,995.07
2018-08-27T11:42:24.339Z,995.04
2018-08-27T11:43:31.137Z,995.07
2018-08-27T11:44:37.783Z,995.04
2018-08-27T11:45:44.490Z,995.07
2018-08-27T11:46:51.209Z,995.00
2018-08-27T11:47:57.929Z,995.03
2018-08-27T11:49:04.653Z,995.04
2018-08-27T11:50:11.412Z,994.99
2018-08-27T11:51:18.142Z,994.98
2018-08-27T11:52:24.889Z,994.94
2018-08-27T11:53:31.662Z,994.93
2018-08-27T11:54:38.422Z,994.90
2018-08-27T11:55:45.210Z,994.88
2018-08-27T11:56:52.002Z,994.90
2018-08-27T11:57:58.825Z,994.95
2018-08-27T11:59:05.651Z,995.00
2018-08-27T12:00:12.463Z,995.01
2018-08-27T12:01:19.298Z,994.98
2018-08-27T12:02:26.088Z,995.04
2018-08-27T12:03:32.904Z,995.03
2018-08-27T12:04:40.689Z,994.99
2018-08-27T12:05:46.513Z,995.06
2018-08-27T12:06:53.301Z,995.01
2018-08-27T12:08:00.091Z,995.02
2018-08-27T12:09:06.904Z,995.05
2018-08-27T12:10:13.656Z,995.11
2018-08-27T12:11:20.437Z,995.09
2018-08-27T12:12:27.188Z,995.09
2018-08-27T12:13:33.936Z,995.11
2018-08-27T12:14:40.712Z,995.14
2018-08-27T12:15:47.423Z,995.12
2018-08-27T12:16:54.175Z,995.15
2018-08-27T12:18:00.871Z,995.14
2018-08-27T12:19:07.597Z,995.19
2018-08-27T12:20:14.336Z,995.15
2018-08-27T12:21:21.031Z,995.17
2018-08-27T12:22:27.753Z,995.13
2018-08-27T12:23:34.460Z,995.11
2018-08-27T12:24:41.673Z,995.20
2018-08-27T12:25:47.902Z,995.26
2018-08-27T12:26:54.624Z,995.20
2018-08-27T12:28:01.333Z,995.23
2018-08-27T12:29:08.039Z,995.22
2018-08-27T12:30:14.761Z,995.30
2018-08-27T12:31:21.501Z,995.29
2018-08-27T12:32:28.241Z,995.28
2018-08-27T12:33:34.977Z,995.24
2018-08-27T12:34:41.741Z,995.27
2018-08-27T12:35:48.544Z,995.13
2018-08-27T12:36:57.281Z,995.23
2018-08-27T12:38:02.045Z,995.27
2018-08-27T12:39:08.810Z,995.29
2018-08-27T12:40:15.559Z,995.28
2018-08-27T12:41:22.382Z,995.23
2018-08-27T12:42:29.120Z,995.33
2018-08-27T12:43:35.957Z,995.26
2018-08-27T12:44:42.713Z,995.19
2018-08-27T12:45:49.493Z,995.10
2018-08-27T12:46:56.307Z,995.06
2018-08-27T12:48:03.150Z,995.10
2018-08-27T12:49:10.022Z,995.11
2018-08-27T12:50:16.911Z,995.01
2018-08-27T12:51:23.887Z,995.00
2018-08-27T12:52:30.708Z,995.06
2018-08-27T12:53:37.623Z,995.05
2018-08-27T12:54:44.570Z,995.09
2018-08-27T12:55:51.499Z,995.05
2018-08-27T12:56:58.467Z,995.09
2018-08-27T12:58:05.436Z,995.07
2018-08-27T12:59:12.418Z,995.09
2018-08-27T13:00:19.416Z,995.11
2018-08-27T13:01:26.428Z,995.14
2018-08-27T13:02:33.462Z,995.05
2018-08-27T13:03:40.512Z,995.19
2018-08-27T13:04:47.604Z,995.13
2018-08-27T13:05:54.691Z,995.18
2018-08-27T13:07:01.759Z,995.15
2018-08-27T13:08:08.845Z,995.12
2018-08-27T13:09:15.856Z,995.15
2018-08-27T13:10:22.900Z,995.09
2018-08-27T13:11:29.982Z,995.17
2018-08-27T13:12:37.523Z,995.11
2018-08-27T13:13:44.055Z,995.17
2018-08-27T13:14:51.044Z,995.16
2018-08-27T13:15:58.079Z,995.24
2018-08-27T13:17:05.100Z,995.21
2018-08-27T13:18:12.109Z,995.23
2018-08-27T13:19:19.106Z,995.23
2018-08-27T13:20:26.073Z,995.15
2018-08-27T13:21:33.024Z,995.19
2018-08-27T13:22:39.977Z,995.20
2018-08-27T13:23:46.910Z,995.21
2018-08-27T13:24:53.852Z,995.21
2018-08-27T13:26:00.801Z,995.24
2018-08-27T13:27:07.689Z,995.27
2018-08-27T13:28:14.585Z,995.26
2018-08-27T13:29:21.500Z,995.31
2018-08-27T13:30:28.516Z,995.30
2018-08-27T13:31:35.453Z,995.30
2018-08-27T13:32:42.284Z,995.30
2018-08-27T13:33:49.030Z,995.28
2018-08-27T13:34:55.907Z,995.31
2018-08-27T13:36:02.774Z,995.28
2018-08-27T13:37:09.666Z,995.29
2018-08-27T13:38:16.535Z,995.34
2018-08-27T13:39:23.410Z,995.37
2018-08-27T13:40:31.361Z,995.42
2018-08-27T13:41:37.209Z,995.44
2018-08-27T13:42:44.073Z,995.37
2018-08-27T13:43:51.445Z,995.41
2018-08-27T13:44:57.870Z,995.34
2018-08-27T13:46:04.780Z,995.38
2018-08-27T13:47:11.710Z,995.40
2018-08-27T13:48:18.654Z,995.27
2018-08-27T13:49:25.565Z,995.33